sensor_id;sensor_type;location;lat;lon;timestamp;pressure;altitude;pressure_sealevel;temperature
19568;BMP280;9930;49.240;8.548;2023-02-28T00:01:27;101428.22;;;4.68
19568;BMP280;9930;49.240;8.548;2023-02-28T00:03:53;101426.34;;;4.65
19568;BMP280;9930;49.240;8.548;2023-02-28T00:06:21;101437.56;;;4.69
19568;BMP280;9930;49.240;8.548;2023-02-28T00:08:48;101437.47;;;4.67
19568;BMP280;9930;49.240;8.548;2023-02-28T00:11:19;101445.03;;;4.67
19568;BMP280;9930;49.240;8.548;2023-02-28T00:13:47;101442.28;;;4.64
19568;BMP280;9930;49.240;8.548;2023-02-28T00:16:22;101424.00;;;4.57
19568;BMP280;9930;49.240;8.548;2023-02-28T00:18:48;101436.97;;;4.61
19568;BMP280;9930;49.240;8.548;2023-02-28T00:21:15;101424.63;;;4.54
19568;BMP280;9930;49.240;8.548;2023-02-28T00:23:44;101421.88;;;4.51
19568;BMP280;9930;49.240;8.548;2023-02-28T00:26:10;101437.38;;;4.55
19568;BMP280;9930;49.240;8.548;2023-02-28T00:28:35;101425.03;;;4.48
19568;BMP280;9930;49.240;8.548;2023-02-28T00:31:01;101432.22;;;4.54
19568;BMP280;9930;49.240;8.548;2023-02-28T00:33:33;101435.63;;;4.54
19568;BMP280;9930;49.240;8.548;2023-02-28T00:36:05;101436.38;;;4.53
19568;BMP280;9930;49.240;8.548;2023-02-28T00:38:31;101432.75;;;4.50
19568;BMP280;9930;49.240;8.548;2023-02-28T00:40:59;101439.44;;;4.49
19568;BMP280;9930;49.240;8.548;2023-02-28T00:43:35;101425.84;;;4.37
19568;BMP280;9930;49.240;8.548;2023-02-28T00:46:03;101435.19;;;4.38
19568;BMP280;9930;49.240;8.548;2023-02-28T00:48:31;101438.59;;;4.39
19568;BMP280;9930;49.240;8.548;2023-02-28T00:50:57;101435.06;;;4.37
19568;BMP280;9930;49.240;8.548;2023-02-28T00:53:25;101429.78;;;4.34
19568;BMP280;9930;49.240;8.548;2023-02-28T00:55:53;101425.38;;;4.31
19568;BMP280;9930;49.240;8.548;2023-02-28T00:58:19;101421.19;;;4.32
19568;BMP280;9930;49.240;8.548;2023-02-28T01:00:45;101437.59;;;4.37
19568;BMP280;9930;49.240;8.548;2023-02-28T01:03:19;101423.59;;;4.30
19568;BMP280;9930;49.240;8.548;2023-02-28T01:05:47;101439.25;;;4.36
19568;BMP280;9930;49.240;8.548;2023-02-28T01:08:14;101429.31;;;4.28
19568;BMP280;9930;49.240;8.548;2023-02-28T01:10:42;101429.31;;;4.28
19568;BMP280;9930;49.240;8.548;2023-02-28T01:13:08;101427.28;;;4.23
19568;BMP280;9930;49.240;8.548;2023-02-28T01:15:37;101439.41;;;4.28
19568;BMP280;9930;49.240;8.548;2023-02-28T01:18:03;101427.06;;;4.20
19568;BMP280;9930;49.240;8.548;2023-02-28T01:20:32;101423.75;;;4.21
19568;BMP280;9930;49.240;8.548;2023-02-28T01:23:06;101425.16;;;4.18
19568;BMP280;9930;49.240;8.548;2023-02-28T01:25:35;101430.97;;;4.17
19568;BMP280;9930;49.240;8.548;2023-02-28T01:28:02;101442.19;;;4.20
19568;BMP280;9930;49.240;8.548;2023-02-28T01:30:30;101423.03;;;4.12
19568;BMP280;9930;49.240;8.548;2023-02-28T01:32:55;101423.28;;;4.15
19568;BMP280;9930;49.240;8.548;2023-02-28T01:35:21;101439.78;;;4.22
19568;BMP280;9930;49.240;8.548;2023-02-28T01:37:47;101428.56;;;4.18
19568;BMP280;9930;49.240;8.548;2023-02-28T01:40:13;101431.84;;;4.17
19568;BMP280;9930;49.240;8.548;2023-02-28T01:42:39;101432.63;;;4.16
19568;BMP280;9930;49.240;8.548;2023-02-28T01:45:30;101429.22;;;4.16
19568;BMP280;9930;49.240;8.548;2023-02-28T01:48:05;101427.09;;;4.10
19568;BMP280;9930;49.240;8.548;2023-02-28T01:50:41;101421.03;;;4.08
19568;BMP280;9930;49.240;8.548;2023-02-28T01:53:17;101418.25;;;4.05
19568;BMP280;9930;49.240;8.548;2023-02-28T01:55:48;101404.88;;;4.06
19568;BMP280;9930;49.240;8.548;2023-02-28T01:58:17;101410.81;;;4.07
19568;BMP280;9930;49.240;8.548;2023-02-28T02:00:43;101408.28;;;4.07
19568;BMP280;9930;49.240;8.548;2023-02-28T02:03:13;101406.53;;;4.06
19568;BMP280;9930;49.240;8.548;2023-02-28T02:05:41;101413.69;;;4.11
19568;BMP280;9930;49.240;8.548;2023-02-28T02:08:12;101405.53;;;4.04
19568;BMP280;9930;49.240;8.548;2023-02-28T02:10:49;101401.22;;;4.03
19568;BMP280;9930;49.240;8.548;2023-02-28T02:22:46;101414.63;;;4.02
19568;BMP280;9930;49.240;8.548;2023-02-28T02:31:01;101396.97;;;3.92
19568;BMP280;9930;49.240;8.548;2023-02-28T02:36:40;101389.91;;;3.87
19568;BMP280;9930;49.240;8.548;2023-02-28T02:39:22;101406.44;;;3.94
19568;BMP280;9930;49.240;8.548;2023-02-28T02:41:54;101408.06;;;3.94
19568;BMP280;9930;49.240;8.548;2023-02-28T02:44:44;101406.19;;;3.91
19568;BMP280;9930;49.240;8.548;2023-02-28T02:47:20;101408.59;;;3.89
19568;BMP280;9930;49.240;8.548;2023-02-28T02:49:54;101390.19;;;3.80
19568;BMP280;9930;49.240;8.548;2023-02-28T02:52:31;101404.31;;;3.88
19568;BMP280;9930;49.240;8.548;2023-02-28T02:55:02;101401.53;;;3.85
19568;BMP280;9930;49.240;8.548;2023-02-28T02:58:05;101400.78;;;3.86
19568;BMP280;9930;49.240;8.548;2023-02-28T03:00:46;101389.19;;;3.78
19568;BMP280;9930;49.240;8.548;2023-02-28T03:03:15;101404.81;;;3.84
19568;BMP280;9930;49.240;8.548;2023-02-28T03:05:49;101387.19;;;3.74
19568;BMP280;9930;49.240;8.548;2023-02-28T03:08:16;101400.16;;;3.79
19568;BMP280;9930;49.240;8.548;2023-02-28T03:10:45;101397.50;;;3.77
19568;BMP280;9930;49.240;8.548;2023-02-28T03:16:35;101396.38;;;3.74
19568;BMP280;9930;49.240;8.548;2023-02-28T03:19:35;101386.69;;;3.68
19568;BMP280;9930;49.240;8.548;2023-02-28T03:25:45;101394.38;;;3.70
19568;BMP280;9930;49.240;8.548;2023-02-28T03:31:30;101400.81;;;3.66
19568;BMP280;9930;49.240;8.548;2023-02-28T03:34:10;101392.75;;;3.60
19568;BMP280;9930;49.240;8.548;2023-02-28T03:36:41;101397.41;;;3.66
19568;BMP280;9930;49.240;8.548;2023-02-28T03:39:20;101394.75;;;3.64
19568;BMP280;9930;49.240;8.548;2023-02-28T03:42:05;101398.69;;;3.61
19568;BMP280;9930;49.240;8.548;2023-02-28T03:44:40;101404.72;;;3.63
19568;BMP280;9930;49.240;8.548;2023-02-28T03:47:17;101389.97;;;3.57
19568;BMP280;9930;49.240;8.548;2023-02-28T03:49:53;101400.56;;;3.63
19568;BMP280;9930;49.240;8.548;2023-02-28T03:52:31;101403.84;;;3.62
19568;BMP280;9930;49.240;8.548;2023-02-28T03:55:07;101399.44;;;3.60
19568;BMP280;9930;49.240;8.548;2023-02-28T03:58:01;101407.88;;;3.60
19568;BMP280;9930;49.240;8.548;2023-02-28T04:00:38;101410.28;;;3.58
19568;BMP280;9930;49.240;8.548;2023-02-28T04:03:07;101392.78;;;3.50
19568;BMP280;9930;49.240;8.548;2023-02-28T04:05:50;101409.16;;;3.55
19568;BMP280;9930;49.240;8.548;2023-02-28T04:08:16;101399.69;;;3.52
19568;BMP280;9930;49.240;8.548;2023-02-28T04:10:55;101399.69;;;3.52
19568;BMP280;9930;49.240;8.548;2023-02-28T04:13:22;101399.06;;;3.45
19568;BMP280;9930;49.240;8.548;2023-02-28T04:15:47;101389.50;;;3.41
19568;BMP280;9930;49.240;8.548;2023-02-28T04:18:13;101406.00;;;3.47
19568;BMP280;9930;49.240;8.548;2023-02-28T04:20:39;101391.13;;;3.40
19568;BMP280;9930;49.240;8.548;2023-02-28T04:23:06;101392.53;;;3.47
19568;BMP280;9930;49.240;8.548;2023-02-28T04:25:36;101386.34;;;3.43
19568;BMP280;9930;49.240;8.548;2023-02-28T04:28:02;101396.41;;;3.53
19568;BMP280;9930;49.240;8.548;2023-02-28T04:30:32;101398.69;;;3.50
19568;BMP280;9930;49.240;8.548;2023-02-28T04:33:03;101388.72;;;3.52
19568;BMP280;9930;49.240;8.548;2023-02-28T04:35:29;101396.16;;;3.61
19568;BMP280;9930;49.240;8.548;2023-02-28T04:37:57;101390.47;;;3.63
19568;BMP280;9930;49.240;8.548;2023-02-28T04:40:25;101395.25;;;3.70
19568;BMP280;9930;49.240;8.548;2023-02-28T04:42:51;101401.31;;;3.72
19568;BMP280;9930;49.240;8.548;2023-02-28T04:45:16;101399.66;;;3.73
19568;BMP280;9930;49.240;8.548;2023-02-28T04:47:42;101394.63;;;3.73
19568;BMP280;9930;49.240;8.548;2023-02-28T04:50:09;101403.44;;;3.78
19568;BMP280;9930;49.240;8.548;2023-02-28T04:52:34;101398.75;;;3.82
19568;BMP280;9930;49.240;8.548;2023-02-28T04:55:00;101400.41;;;3.82
19568;BMP280;9930;49.240;8.548;2023-02-28T04:57:29;101392.72;;;3.80
19568;BMP280;9930;49.240;8.548;2023-02-28T04:59:57;101403.41;;;3.88
19568;BMP280;9930;49.240;8.548;2023-02-28T05:02:24;101393.44;;;3.89
19568;BMP280;9930;49.240;8.548;2023-02-28T05:04:50;101387.41;;;3.87
19568;BMP280;9930;49.240;8.548;2023-02-28T05:07:20;101400.09;;;3.99
19568;BMP280;9930;49.240;8.548;2023-02-28T05:09:46;101407.91;;;4.02
19568;BMP280;9930;49.240;8.548;2023-02-28T05:12:12;101388.00;;;3.95
19568;BMP280;9930;49.240;8.548;2023-02-28T05:14:39;101407.41;;;4.06
19568;BMP280;9930;49.240;8.548;2023-02-28T05:17:04;101415.75;;;4.05
19568;BMP280;9930;49.240;8.548;2023-02-28T05:19:32;101410.94;;;4.08
19568;BMP280;9930;49.240;8.548;2023-02-28T05:22:00;101413.56;;;4.10
19568;BMP280;9930;49.240;8.548;2023-02-28T05:24:26;101407.41;;;4.06
19568;BMP280;9930;49.240;8.548;2023-02-28T05:26:54;101405.00;;;4.08
19568;BMP280;9930;49.240;8.548;2023-02-28T05:29:25;101408.78;;;4.13
19568;BMP280;9930;49.240;8.548;2023-02-28T05:31:50;101410.53;;;4.14
19568;BMP280;9930;49.240;8.548;2023-02-28T05:34:16;101430.59;;;4.22
19568;BMP280;9930;49.240;8.548;2023-02-28T05:36:45;101429.81;;;4.23
19568;BMP280;9930;49.240;8.548;2023-02-28T05:39:13;101416.47;;;4.14
19568;BMP280;9930;49.240;8.548;2023-02-28T05:41:47;101416.72;;;4.17
19568;BMP280;9930;49.240;8.548;2023-02-28T05:44:13;101421.88;;;4.19
19568;BMP280;9930;49.240;8.548;2023-02-28T05:46:41;101435.88;;;4.26
19568;BMP280;9930;49.240;8.548;2023-02-28T05:49:06;101420.47;;;4.22
19568;BMP280;9930;49.240;8.548;2023-02-28T05:51:32;101428.41;;;4.27
19568;BMP280;9930;49.240;8.548;2023-02-28T05:54:02;101430.06;;;4.27
19568;BMP280;9930;49.240;8.548;2023-02-28T05:56:33;101422.00;;;4.20
19568;BMP280;9930;49.240;8.548;2023-02-28T05:59:06;101432.59;;;4.27
19568;BMP280;9930;49.240;8.548;2023-02-28T06:01:44;101443.56;;;4.27
19568;BMP280;9930;49.240;8.548;2023-02-28T06:04:17;101431.22;;;4.20
19568;BMP280;9930;49.240;8.548;2023-02-28T06:06:48;101430.81;;;4.26
19568;BMP280;9930;49.240;8.548;2023-02-28T06:09:17;101432.34;;;4.23
19568;BMP280;9930;49.240;8.548;2023-02-28T06:11:46;101426.06;;;4.18
19568;BMP280;9930;49.240;8.548;2023-02-28T06:14:18;101436.75;;;4.26
19568;BMP280;9930;49.240;8.548;2023-02-28T06:16:44;101422.63;;;4.18
19568;BMP280;9930;49.240;8.548;2023-02-28T06:19:12;101444.22;;;4.25
19568;BMP280;9930;49.240;8.548;2023-02-28T06:21:40;101434.00;;;4.23
19568;BMP280;9930;49.240;8.548;2023-02-28T06:24:07;101430.59;;;4.22
19568;BMP280;9930;49.240;8.548;2023-02-28T06:26:33;101438.16;;;4.22
19568;BMP280;9930;49.240;8.548;2023-02-28T06:29:01;101441.56;;;4.23
19568;BMP280;9930;49.240;8.548;2023-02-28T06:31:29;101429.47;;;4.19
19568;BMP280;9930;49.240;8.548;2023-02-28T06:33:55;101431.22;;;4.20
19568;BMP280;9930;49.240;8.548;2023-02-28T06:36:22;101444.56;;;4.29
19568;BMP280;9930;49.240;8.548;2023-02-28T06:38:53;101433.34;;;4.26
19568;BMP280;9930;49.240;8.548;2023-02-28T06:41:29;101448.22;;;4.33
19568;BMP280;9930;49.240;8.548;2023-02-28T06:44:16;101433.34;;;4.26
19568;BMP280;9930;49.240;8.548;2023-02-28T06:46:46;101454.16;;;4.33
19568;BMP280;9930;49.240;8.548;2023-02-28T06:49:12;101449.34;;;4.36
19568;BMP280;9930;49.240;8.548;2023-02-28T06:51:41;101446.81;;;4.36
19568;BMP280;9930;49.240;8.548;2023-02-28T06:54:08;101466.75;;;4.43
19568;BMP280;9930;49.240;8.548;2023-02-28T06:56:37;101466.75;;;4.43
19568;BMP280;9930;49.240;8.548;2023-02-28T06:59:03;101462.81;;;4.47
19568;BMP280;9930;49.240;8.548;2023-02-28T07:01:32;101479.22;;;4.52
19568;BMP280;9930;49.240;8.548;2023-02-28T07:04:02;101476.94;;;4.55
19568;BMP280;9930;49.240;8.548;2023-02-28T07:06:33;101483.88;;;4.58
19568;BMP280;9930;49.240;8.548;2023-02-28T07:09:05;101483.22;;;4.60
19568;BMP280;9930;49.240;8.548;2023-02-28T07:11:33;101478.47;;;4.53
19568;BMP280;9930;49.240;8.548;2023-02-28T07:14:01;101466.59;;;4.52
19568;BMP280;9930;49.240;8.548;2023-02-28T07:16:26;101466.72;;;4.53
19568;BMP280;9930;49.240;8.548;2023-02-28T07:18:53;101465.06;;;4.54
19568;BMP280;9930;49.240;8.548;2023-02-28T07:21:19;101474.34;;;4.65
19568;BMP280;9930;49.240;8.548;2023-02-28T07:23:45;101476.13;;;4.66
19568;BMP280;9930;49.240;8.548;2023-02-28T07:26:16;101494.78;;;4.78
19568;BMP280;9930;49.240;8.548;2023-02-28T07:28:45;101494.53;;;4.75
19568;BMP280;9930;49.240;8.548;2023-02-28T07:31:13;101483.41;;;4.73
19568;BMP280;9930;49.240;8.548;2023-02-28T07:33:39;101492.47;;;4.81
19568;BMP280;9930;49.240;8.548;2023-02-28T07:36:15;101502.59;;;4.81
19568;BMP280;9930;49.240;8.548;2023-02-28T07:38:44;101504.34;;;4.82
19568;BMP280;9930;49.240;8.548;2023-02-28T07:41:11;101509.66;;;4.85
19568;BMP280;9930;49.240;8.548;2023-02-28T07:43:37;101513.31;;;4.89
19568;BMP280;9930;49.240;8.548;2023-02-28T07:46:12;101494.47;;;4.85
19568;BMP280;9930;49.240;8.548;2023-02-28T07:48:43;101496.59;;;4.91
19568;BMP280;9930;49.240;8.548;2023-02-28T07:51:10;101514.53;;;4.94
19568;BMP280;9930;49.240;8.548;2023-02-28T07:53:36;101488.78;;;4.88
19568;BMP280;9930;49.240;8.548;2023-02-28T07:56:03;101489.03;;;4.91
19568;BMP280;9930;49.240;8.548;2023-02-28T07:58:34;101490.78;;;4.92
19568;BMP280;9930;49.240;8.548;2023-02-28T08:01:11;101501.72;;;5.03
19568;BMP280;9930;49.240;8.548;2023-02-28T08:03:40;101493.59;;;5.07
19568;BMP280;9930;49.240;8.548;2023-02-28T08:06:08;101489.66;;;5.10
19568;BMP280;9930;49.240;8.548;2023-02-28T08:08:40;101493.44;;;5.15
19568;BMP280;9930;49.240;8.548;2023-02-28T08:11:08;101508.28;;;5.22
19568;BMP280;9930;49.240;8.548;2023-02-28T08:13:33;101505.63;;;5.21
19568;BMP280;9930;49.240;8.548;2023-02-28T08:16:02;101501.25;;;5.30
19568;BMP280;9930;49.240;8.548;2023-02-28T08:18:36;101477.16;;;5.24
19568;BMP280;9930;49.240;8.548;2023-02-28T08:21:09;101504.25;;;5.36
19568;BMP280;9930;49.240;8.548;2023-02-28T08:23:35;101501.97;;;5.39
19568;BMP280;9930;49.240;8.548;2023-02-28T08:26:06;101507.25;;;5.42
19568;BMP280;9930;49.240;8.548;2023-02-28T08:28:32;101484.91;;;5.37
19568;BMP280;9930;49.240;8.548;2023-02-28T08:30:59;101487.66;;;5.40
19568;BMP280;9930;49.240;8.548;2023-02-28T08:33:27;101491.06;;;5.40
19568;BMP280;9930;49.240;8.548;2023-02-28T08:35:58;101497.81;;;5.51
19568;BMP280;9930;49.240;8.548;2023-02-28T08:38:25;101497.16;;;5.54
19568;BMP280;9930;49.240;8.548;2023-02-28T08:40:58;101497.50;;;5.59
19568;BMP280;9930;49.240;8.548;2023-02-28T08:43:28;101501.91;;;5.61
19568;BMP280;9930;49.240;8.548;2023-02-28T08:45:56;101500.50;;;5.65
19568;BMP280;9930;49.240;8.548;2023-02-28T08:48:31;101497.53;;;5.70
19568;BMP280;9930;49.240;8.548;2023-02-28T08:51:12;101502.28;;;5.77
19568;BMP280;9930;49.240;8.548;2023-02-28T08:53:40;101522.78;;;5.80
19568;BMP280;9930;49.240;8.548;2023-02-28T08:56:13;101508.03;;;5.86
19568;BMP280;9930;49.240;8.548;2023-02-28T08:58:40;101495.75;;;5.91
19568;BMP280;9930;49.240;8.548;2023-02-28T09:01:21;101505.56;;;5.98
19568;BMP280;9930;49.240;8.548;2023-02-28T09:03:50;101487.72;;;5.97
19568;BMP280;9930;49.240;8.548;2023-02-28T09:06:19;101509.22;;;6.13
19568;BMP280;9930;49.240;8.548;2023-02-28T09:08:47;101506.34;;;6.21
19568;BMP280;9930;49.240;8.548;2023-02-28T09:11:16;101508.66;;;6.29
19568;BMP280;9930;49.240;8.548;2023-02-28T09:13:45;101512.31;;;6.33
19568;BMP280;9930;49.240;8.548;2023-02-28T09:16:14;101509.75;;;6.33
19568;BMP280;9930;49.240;8.548;2023-02-28T09:18:44;101494.00;;;6.37
19568;BMP280;9930;49.240;8.548;2023-02-28T09:21:14;101490.69;;;6.38
19568;BMP280;9930;49.240;8.548;2023-02-28T09:23:42;101505.03;;;6.49
19568;BMP280;9930;49.240;8.548;2023-02-28T09:26:23;101504.25;;;6.50
19568;BMP280;9930;49.240;8.548;2023-02-28T09:28:50;101477.25;;;6.39
19568;BMP280;9930;49.240;8.548;2023-02-28T09:31:24;101490.03;;;6.52
19568;BMP280;9930;49.240;8.548;2023-02-28T09:33:53;101496.09;;;6.54
19568;BMP280;9930;49.240;8.548;2023-02-28T09:36:20;101491.44;;;6.60
19568;BMP280;9930;49.240;8.548;2023-02-28T09:38:46;101478.66;;;6.59
19568;BMP280;9930;49.240;8.548;2023-02-28T09:41:18;101494.28;;;6.76
19568;BMP280;9930;49.240;8.548;2023-02-28T09:43:50;101487.31;;;6.86
19568;BMP280;9930;49.240;8.548;2023-02-28T09:49:05;101496.00;;;7.01
19568;BMP280;9930;49.240;8.548;2023-02-28T09:52:02;101484.41;;;7.04
19568;BMP280;9930;49.240;8.548;2023-02-28T09:54:34;101473.28;;;7.02
19568;BMP280;9930;49.240;8.548;2023-02-28T10:00:18;101482.13;;;7.21
19568;BMP280;9930;49.240;8.548;2023-02-28T10:03:46;101486.63;;;7.25
19568;BMP280;9930;49.240;8.548;2023-02-28T10:06:22;101486.75;;;7.26
19568;BMP280;9930;49.240;8.548;2023-02-28T10:09:24;101477.47;;;7.27
19568;BMP280;9930;49.240;8.548;2023-02-28T10:11:57;101491.78;;;7.38
19568;BMP280;9930;49.240;8.548;2023-02-28T10:14:33;101507.81;;;7.50
19568;BMP280;9930;49.240;8.548;2023-02-28T10:17:13;101488.81;;;7.57
19568;BMP280;9930;49.240;8.548;2023-02-28T10:22:44;101495.56;;;7.69
19568;BMP280;9930;49.240;8.548;2023-02-28T10:25:28;101502.53;;;7.72
19568;BMP280;9930;49.240;8.548;2023-02-28T10:28:13;101498.41;;;7.74
19568;BMP280;9930;49.240;8.548;2023-02-28T10:30:50;101493.44;;;7.75
19568;BMP280;9930;49.240;8.548;2023-02-28T10:33:33;101481.63;;;7.76
19568;BMP280;9930;49.240;8.548;2023-02-28T10:36:04;101491.97;;;7.79
19568;BMP280;9930;49.240;8.548;2023-02-28T10:38:40;101482.22;;;7.85
19568;BMP280;9930;49.240;8.548;2023-02-28T10:41:26;101483.50;;;7.92
19568;BMP280;9930;49.240;8.548;2023-02-28T10:44:13;101482.03;;;7.95
19568;BMP280;9930;49.240;8.548;2023-02-28T10:46:41;101489.66;;;7.95
19568;BMP280;9930;49.240;8.548;2023-02-28T10:49:20;101491.44;;;7.96
19568;BMP280;9930;49.240;8.548;2023-02-28T10:51:53;101476.47;;;7.88
19568;BMP280;9930;49.240;8.548;2023-02-28T10:54:29;101499.72;;;7.94
19568;BMP280;9930;49.240;8.548;2023-02-28T10:57:18;101471.88;;;7.82
19568;BMP280;9930;49.240;8.548;2023-02-28T10:59:50;101484.78;;;7.85
19568;BMP280;9930;49.240;8.548;2023-02-28T11:02:36;101473.91;;;7.74
19568;BMP280;9930;49.240;8.548;2023-02-28T11:05:46;101481.44;;;7.73
19568;BMP280;9930;49.240;8.548;2023-02-28T11:08:16;101475.56;;;7.74
19568;BMP280;9930;49.240;8.548;2023-02-28T11:10:59;101477.53;;;7.78
19568;BMP280;9930;49.240;8.548;2023-02-28T11:13:34;101456.22;;;7.76
19568;BMP280;9930;49.240;8.548;2023-02-28T11:16:09;101473.94;;;7.88
19568;BMP280;9930;49.240;8.548;2023-02-28T11:18:49;101466.50;;;7.91
19568;BMP280;9930;49.240;8.548;2023-02-28T11:21:27;101469.72;;;7.88
19568;BMP280;9930;49.240;8.548;2023-02-28T11:26:48;101471.78;;;7.80
19568;BMP280;9930;49.240;8.548;2023-02-28T11:29:25;101477.72;;;7.81
19568;BMP280;9930;49.240;8.548;2023-02-28T11:32:21;101473.31;;;7.78
19568;BMP280;9930;49.240;8.548;2023-02-28T11:35:03;101459.56;;;7.75
19568;BMP280;9930;49.240;8.548;2023-02-28T11:37:33;101466.59;;;7.79
19568;BMP280;9930;49.240;8.548;2023-02-28T11:40:24;101465.91;;;7.82
19568;BMP280;9930;49.240;8.548;2023-02-28T11:43:09;101459.84;;;7.79
19568;BMP280;9930;49.240;8.548;2023-02-28T11:46:35;101458.28;;;7.82
19568;BMP280;9930;49.240;8.548;2023-02-28T11:49:56;101458.69;;;7.88
19568;BMP280;9930;49.240;8.548;2023-02-28T11:52:55;101441.00;;;7.89
19568;BMP280;9930;49.240;8.548;2023-02-28T11:55:42;101463.59;;;7.98
19568;BMP280;9930;49.240;8.548;2023-02-28T12:01:06;101459.88;;;8.06
19568;BMP280;9930;49.240;8.548;2023-02-28T12:06:51;101453.44;;;8.24
19568;BMP280;9930;49.240;8.548;2023-02-28T12:18:21;101442.19;;;8.47
19568;BMP280;9930;49.240;8.548;2023-02-28T12:21:38;101447.06;;;8.57
19568;BMP280;9930;49.240;8.548;2023-02-28T12:27:19;101438.56;;;8.57
19568;BMP280;9930;49.240;8.548;2023-02-28T12:30:02;101437.78;;;8.58
19568;BMP280;9930;49.240;8.548;2023-02-28T12:32:58;101446.28;;;8.58
19568;BMP280;9930;49.240;8.548;2023-02-28T12:35:47;101432.88;;;8.61
19568;BMP280;9930;49.240;8.548;2023-02-28T12:38:39;101434.53;;;8.60
19568;BMP280;9930;49.240;8.548;2023-02-28T12:41:20;101419.47;;;8.63
19568;BMP280;9930;49.240;8.548;2023-02-28T12:44:00;101433.34;;;8.68
19568;BMP280;9930;49.240;8.548;2023-02-28T12:46:33;101429.31;;;8.72
19568;BMP280;9930;49.240;8.548;2023-02-28T12:49:31;101430.06;;;8.84
19568;BMP280;9930;49.240;8.548;2023-02-28T12:52:02;101427.72;;;8.87
19568;BMP280;9930;49.240;8.548;2023-02-28T12:57:50;101423.50;;;8.88
19568;BMP280;9930;49.240;8.548;2023-02-28T13:00:23;101428.59;;;8.88
19568;BMP280;9930;49.240;8.548;2023-02-28T13:06:01;101415.97;;;8.89
19568;BMP280;9930;49.240;8.548;2023-02-28T13:09:10;101420.00;;;8.86
19568;BMP280;9930;49.240;8.548;2023-02-28T13:11:45;101414.56;;;8.94
19568;BMP280;9930;49.240;8.548;2023-02-28T13:17:09;101405.00;;;8.90
19568;BMP280;9930;49.240;8.548;2023-02-28T13:27:55;101415.63;;;8.98
19568;BMP280;9930;49.240;8.548;2023-02-28T13:36:27;101418.50;;;8.89
19568;BMP280;9930;49.240;8.548;2023-02-28T13:39:45;101422.72;;;8.89
19568;BMP280;9930;49.240;8.548;2023-02-28T13:42:35;101421.31;;;8.94
19568;BMP280;9930;49.240;8.548;2023-02-28T13:50:32;101426.38;;;9.07
19568;BMP280;9930;49.240;8.548;2023-02-28T13:56:16;101425.56;;;9.08
19568;BMP280;9930;49.240;8.548;2023-02-28T14:07:49;101419.28;;;9.16
19568;BMP280;9930;49.240;8.548;2023-02-28T14:10:32;101418.59;;;9.19
19568;BMP280;9930;49.240;8.548;2023-02-28T14:15:40;101422.19;;;9.22
19568;BMP280;9930;49.240;8.548;2023-02-28T14:18:35;101404.19;;;9.19
19568;BMP280;9930;49.240;8.548;2023-02-28T14:21:21;101423.34;;;9.27
19568;BMP280;9930;49.240;8.548;2023-02-28T14:27:42;101421.84;;;9.31
19568;BMP280;9930;49.240;8.548;2023-02-28T14:36:10;101418.34;;;9.29
19568;BMP280;9930;49.240;8.548;2023-02-28T14:41:47;101418.94;;;9.25
19568;BMP280;9930;49.240;8.548;2023-02-28T14:44:25;101426.56;;;9.25
19568;BMP280;9930;49.240;8.548;2023-02-28T14:47:02;101415.16;;;9.18
19568;BMP280;9930;49.240;8.548;2023-02-28T14:49:37;101405.75;;;9.17
19568;BMP280;9930;49.240;8.548;2023-02-28T14:52:27;101423.94;;;9.23
19568;BMP280;9930;49.240;8.548;2023-02-28T14:55:04;101417.97;;;9.23
19568;BMP280;9930;49.240;8.548;2023-02-28T14:57:35;101404.97;;;9.18
19568;BMP280;9930;49.240;8.548;2023-02-28T15:00:20;101413.06;;;9.26
19568;BMP280;9930;49.240;8.548;2023-02-28T15:02:46;101412.28;;;9.27
19568;BMP280;9930;49.240;8.548;2023-02-28T15:07:43;101415.00;;;9.30
19568;BMP280;9930;49.240;8.548;2023-02-28T15:13:14;101422.53;;;9.28
19568;BMP280;9930;49.240;8.548;2023-02-28T15:16:05;101431.66;;;9.25
19568;BMP280;9930;49.240;8.548;2023-02-28T15:18:52;101409.09;;;9.16
19568;BMP280;9930;49.240;8.548;2023-02-28T15:21:24;101422.19;;;9.22
19568;BMP280;9930;49.240;8.548;2023-02-28T15:26:32;101414.03;;;9.28
19568;BMP280;9930;49.240;8.548;2023-02-28T15:29:07;101422.53;;;9.28
19568;BMP280;9930;49.240;8.548;2023-02-28T15:31:45;101422.44;;;9.27
19568;BMP280;9930;49.240;8.548;2023-02-28T15:34:27;101415.25;;;9.20
19568;BMP280;9930;49.240;8.548;2023-02-28T15:36:53;101423.94;;;9.23
19568;BMP280;9930;49.240;8.548;2023-02-28T15:39:27;101429.91;;;9.24
19568;BMP280;9930;49.240;8.548;2023-02-28T15:42:18;101428.75;;;9.19
19568;BMP280;9930;49.240;8.548;2023-02-28T15:44:45;101430.44;;;9.18
19568;BMP280;9930;49.240;8.548;2023-02-28T15:47:30;101416.63;;;9.15
19568;BMP280;9930;49.240;8.548;2023-02-28T15:50:09;101425.75;;;9.11
19568;BMP280;9930;49.240;8.548;2023-02-28T15:52:44;101412.50;;;9.02
19568;BMP280;9930;49.240;8.548;2023-02-28T15:55:28;101419.44;;;9.04
19568;BMP280;9930;49.240;8.548;2023-02-28T15:58:03;101407.22;;;8.99
19568;BMP280;9930;49.240;8.548;2023-02-28T16:00:32;101418.47;;;9.02
19568;BMP280;9930;49.240;8.548;2023-02-28T16:03:26;101406.34;;;8.98
19568;BMP280;9930;49.240;8.548;2023-02-28T16:06:36;101415.44;;;8.95
19568;BMP280;9930;49.240;8.548;2023-02-28T16:09:15;101406.47;;;8.87
19568;BMP280;9930;49.240;8.548;2023-02-28T16:11:50;101413.41;;;8.89
19568;BMP280;9930;49.240;8.548;2023-02-28T16:14:28;101406.19;;;8.82
19568;BMP280;9930;49.240;8.548;2023-02-28T16:17:07;101414.03;;;8.85
19568;BMP280;9930;49.240;8.548;2023-02-28T16:19:36;101403.28;;;8.76
19568;BMP280;9930;49.240;8.548;2023-02-28T16:22:03;101421.47;;;8.82
19568;BMP280;9930;49.240;8.548;2023-02-28T16:24:31;101411.88;;;8.78
19568;BMP280;9930;49.240;8.548;2023-02-28T16:26:58;101430.59;;;8.79
19568;BMP280;9930;49.240;8.548;2023-02-28T16:29:34;101421.78;;;8.73
19568;BMP280;9930;49.240;8.548;2023-02-28T16:32:05;101419.16;;;8.72
19568;BMP280;9930;49.240;8.548;2023-02-28T16:34:35;101423.00;;;8.65
19568;BMP280;9930;49.240;8.548;2023-02-28T16:37:13;101433.44;;;8.70
19568;BMP280;9930;49.240;8.548;2023-02-28T16:39:40;101440.88;;;8.67
19568;BMP280;9930;49.240;8.548;2023-02-28T16:42:12;101429.16;;;8.56
19568;BMP280;9930;49.240;8.548;2023-02-28T16:44:41;101439.34;;;8.56
19568;BMP280;9930;49.240;8.548;2023-02-28T16:47:10;101452.66;;;8.52
19568;BMP280;9930;49.240;8.548;2023-02-28T16:49:36;101450.78;;;8.49
19568;BMP280;9930;49.240;8.548;2023-02-28T16:52:04;101452.28;;;8.46
19568;BMP280;9930;49.240;8.548;2023-02-28T16:54:32;101453.06;;;8.44
19568;BMP280;9930;49.240;8.548;2023-02-28T16:57:02;101456.28;;;8.42
19568;BMP280;9930;49.240;8.548;2023-02-28T16:59:28;101455.13;;;8.37
19568;BMP280;9930;49.240;8.548;2023-02-28T17:01:58;101465.19;;;8.35